createdAt,value
2019-02-27T00:01:18.894Z,18.37
2019-02-27T00:03:48.301Z,17.67
2019-02-27T00:06:17.703Z,17.87
2019-02-27T00:08:47.058Z,17.10
2019-02-27T00:11:16.645Z,17.90
2019-02-27T00:13:46.153Z,18.42
2019-02-27T00:16:15.570Z,18.77
2019-02-27T00:18:44.988Z,17.85
2019-02-27T00:21:15.287Z,18.15
2019-02-27T00:23:44.634Z,18.85
2019-02-27T00:26:13.965Z,18.02
2019-02-27T00:28:43.593Z,17.60
2019-02-27T00:31:12.918Z,18.20
2019-02-27T00:33:42.258Z,18.60
2019-02-27T00:36:12.306Z,17.77
2019-02-27T00:38:43.737Z,17.70
2019-02-27T00:41:13.115Z,17.87
2019-02-27T00:43:42.685Z,19.00
2019-02-27T00:46:13.403Z,19.87
2019-02-27T00:48:44.304Z,17.55
2019-02-27T00:51:13.988Z,18.23
2019-02-27T00:53:43.302Z,18.23
2019-02-27T00:56:12.937Z,17.77
2019-02-27T00:58:42.418Z,17.20
2019-02-27T01:01:12.658Z,18.07
2019-02-27T01:03:42.525Z,16.73
2019-02-27T01:06:14.622Z,17.57
2019-02-27T01:08:43.404Z,17.27
2019-02-27T01:11:12.731Z,17.73
2019-02-27T01:13:42.066Z,18.40
2019-02-27T01:16:11.439Z,17.52
2019-02-27T01:18:40.769Z,17.27
2019-02-27T01:21:10.108Z,18.25
2019-02-27T01:23:43.859Z,18.23
2019-02-27T01:26:10.470Z,17.02
2019-02-27T01:28:44.679Z,17.50
2019-02-27T01:31:11.093Z,17.70
2019-02-27T01:33:40.507Z,18.40
2019-02-27T01:36:10.143Z,17.25
2019-02-27T01:38:39.478Z,17.70
2019-02-27T01:41:08.816Z,18.10
2019-02-27T01:43:39.862Z,17.20
2019-02-27T01:46:09.183Z,17.05
2019-02-27T01:48:42.821Z,17.90
2019-02-27T01:51:09.545Z,16.57
2019-02-27T01:53:40.451Z,17.27
2019-02-27T01:56:10.244Z,17.87
2019-02-27T01:58:43.310Z,17.52
2019-02-27T02:01:10.689Z,18.02
2019-02-27T02:03:40.189Z,16.62
2019-02-27T02:06:09.924Z,17.55
2019-02-27T02:08:43.188Z,18.60
2019-02-27T02:11:12.525Z,18.25
2019-02-27T02:13:50.817Z,18.55
2019-02-27T02:16:28.871Z,19.40
2019-02-27T02:19:26.912Z,16.05
2019-02-27T02:22:14.273Z,16.73
2019-02-27T02:25:10.153Z,17.48
2019-02-27T02:27:57.986Z,16.85
2019-02-27T02:30:44.914Z,17.85
2019-02-27T02:33:17.540Z,16.77
2019-02-27T02:36:04.617Z,17.00
2019-02-27T02:38:53.629Z,17.37
2019-02-27T02:41:34.959Z,17.82
2019-02-27T02:44:26.799Z,17.77
2019-02-27T02:47:08.167Z,17.40
2019-02-27T02:49:49.365Z,18.02
2019-02-27T02:52:41.705Z,17.80
2019-02-27T02:55:23.380Z,17.90
2019-02-27T02:58:07.752Z,17.35
2019-02-27T03:01:13.964Z,17.37
2019-02-27T03:03:43.006Z,17.52
2019-02-27T03:06:34.582Z,16.65
2019-02-27T03:09:30.639Z,17.02
2019-02-27T03:12:21.322Z,17.45
2019-02-27T03:14:54.560Z,17.50
2019-02-27T03:17:27.081Z,18.45
2019-02-27T03:20:19.406Z,17.95
2019-02-27T03:23:09.141Z,18.30
2019-02-27T03:25:47.530Z,17.70
2019-02-27T03:28:40.580Z,17.02
2019-02-27T03:31:35.034Z,17.35
2019-02-27T03:34:25.113Z,17.00
2019-02-27T03:37:13.152Z,17.92
2019-02-27T03:39:55.765Z,18.37
2019-02-27T03:42:40.187Z,18.62
2019-02-27T03:45:32.383Z,16.65
2019-02-27T03:48:13.558Z,17.50
2019-02-27T03:50:54.975Z,17.23
2019-02-27T03:53:27.391Z,17.10
2019-02-27T03:56:16.358Z,16.95
2019-02-27T03:59:09.296Z,16.20
2019-02-27T04:02:05.876Z,17.48
2019-02-27T04:04:46.595Z,17.50
2019-02-27T04:07:43.357Z,17.48
2019-02-27T04:10:12.699Z,16.80
2019-02-27T04:12:42.073Z,17.02
2019-02-27T04:15:17.615Z,17.87
2019-02-27T04:17:41.533Z,17.27
2019-02-27T04:20:14.609Z,17.75
2019-02-27T04:22:41.961Z,17.90
2019-02-27T04:25:11.295Z,17.87
2019-02-27T04:27:43.728Z,17.35
2019-02-27T04:30:15.665Z,17.67
2019-02-27T04:32:48.688Z,18.25
2019-02-27T04:35:16.021Z,17.52
2019-02-27T04:37:45.353Z,16.25
2019-02-27T04:40:14.683Z,17.52
2019-02-27T04:42:44.016Z,17.00
2019-02-27T04:45:13.349Z,16.52
2019-02-27T04:47:42.744Z,17.32
2019-02-27T04:50:12.144Z,17.32
2019-02-27T04:52:41.484Z,16.65
2019-02-27T04:55:15.342Z,15.63
2019-02-27T04:57:41.915Z,16.95
2019-02-27T05:00:12.189Z,16.67
2019-02-27T05:02:41.533Z,16.62
2019-02-27T05:05:10.930Z,15.13
2019-02-27T05:07:41.525Z,16.02
2019-02-27T05:10:11.258Z,15.88
2019-02-27T05:12:40.600Z,15.75
2019-02-27T05:15:10.101Z,15.05
2019-02-27T05:17:39.432Z,15.88
2019-02-27T05:20:12.527Z,15.05
2019-02-27T05:22:40.345Z,15.35
2019-02-27T05:25:12.078Z,15.05
2019-02-27T05:27:41.075Z,14.93
2019-02-27T05:30:12.879Z,15.15
2019-02-27T05:32:42.631Z,14.95
2019-02-27T05:35:11.981Z,14.58
2019-02-27T05:37:41.370Z,15.70
2019-02-27T05:40:11.241Z,14.47
2019-02-27T05:42:40.568Z,14.63
2019-02-27T05:45:12.055Z,14.70
2019-02-27T05:47:44.673Z,14.93
2019-02-27T05:50:12.890Z,14.07
2019-02-27T05:52:42.223Z,14.03
2019-02-27T05:55:12.418Z,14.13
2019-02-27T05:57:41.745Z,14.45
2019-02-27T06:00:16.689Z,14.83
2019-02-27T06:02:46.039Z,14.50
2019-02-27T06:05:15.551Z,13.70
2019-02-27T06:07:45.136Z,14.10
2019-02-27T06:10:20.158Z,13.75
2019-02-27T06:12:48.992Z,14.87
2019-02-27T06:15:18.874Z,14.47
2019-02-27T06:17:49.206Z,15.93
2019-02-27T06:20:19.427Z,14.50
2019-02-27T06:22:49.730Z,15.63
2019-02-27T06:25:23.212Z,14.58
2019-02-27T06:27:50.373Z,15.00
2019-02-27T06:30:21.049Z,14.70
2019-02-27T06:32:50.647Z,15.10
2019-02-27T06:35:19.975Z,15.68
2019-02-27T06:37:50.866Z,14.55
2019-02-27T06:40:20.368Z,14.55
2019-02-27T06:42:53.427Z,13.98
2019-02-27T06:45:20.805Z,13.83
2019-02-27T06:47:50.149Z,14.80
2019-02-27T06:50:19.525Z,15.30
2019-02-27T06:52:48.848Z,15.32
2019-02-27T06:55:18.187Z,16.55
2019-02-27T06:57:47.510Z,15.23
2019-02-27T07:00:24.463Z,15.93
2019-02-27T07:02:55.458Z,15.23
2019-02-27T07:05:24.822Z,13.70
2019-02-27T07:07:54.159Z,15.20
2019-02-27T07:10:23.492Z,14.83
2019-02-27T07:12:54.682Z,14.28
2019-02-27T07:15:23.916Z,14.83
2019-02-27T07:17:53.246Z,14.87
2019-02-27T07:20:24.605Z,15.08
2019-02-27T07:22:53.964Z,15.05
2019-02-27T07:25:23.285Z,14.60
2019-02-27T07:27:52.620Z,15.83
2019-02-27T07:30:23.709Z,13.88
2019-02-27T07:32:52.987Z,14.20
2019-02-27T07:35:25.371Z,14.23
2019-02-27T07:37:53.751Z,15.20
2019-02-27T07:40:23.074Z,14.65
2019-02-27T07:42:52.405Z,13.95
2019-02-27T07:45:22.932Z,11.85
2019-02-27T07:47:52.597Z,13.13
2019-02-27T07:50:22.292Z,12.30
2019-02-27T07:52:52.251Z,11.83
2019-02-27T07:55:23.300Z,13.03
2019-02-27T07:57:52.774Z,13.22
2019-02-27T08:00:23.277Z,13.83
2019-02-27T08:02:52.956Z,12.88
2019-02-27T08:05:22.213Z,11.97
2019-02-27T08:07:51.546Z,10.43
2019-02-27T08:10:22.980Z,9.60
2019-02-27T08:12:55.530Z,10.32
2019-02-27T08:15:25.204Z,9.98
2019-02-27T08:17:57.469Z,9.95
2019-02-27T08:20:25.740Z,9.40
2019-02-27T08:22:55.064Z,9.63
2019-02-27T08:25:24.637Z,8.83
2019-02-27T08:27:54.312Z,9.18
2019-02-27T08:30:25.091Z,8.68
2019-02-27T08:32:54.497Z,9.13
2019-02-27T08:35:23.823Z,9.18
2019-02-27T08:38:01.890Z,9.00
2019-02-27T08:40:25.248Z,8.05
2019-02-27T08:42:54.906Z,9.33
2019-02-27T08:45:26.967Z,9.13
2019-02-27T08:47:55.843Z,9.08
2019-02-27T08:50:25.297Z,10.08
2019-02-27T08:52:54.626Z,9.80
2019-02-27T08:55:24.931Z,9.55
2019-02-27T08:57:56.928Z,10.23
2019-02-27T09:00:32.709Z,11.80
2019-02-27T09:03:03.037Z,10.65
2019-02-27T09:05:33.183Z,10.82
2019-02-27T09:08:02.509Z,9.65
2019-02-27T09:10:31.848Z,11.45
2019-02-27T09:13:05.363Z,10.30
2019-02-27T09:15:32.445Z,12.00
2019-02-27T09:18:02.479Z,12.70
2019-02-27T09:20:31.782Z,10.90
2019-02-27T09:23:01.354Z,11.25
2019-02-27T09:25:30.694Z,11.40
2019-02-27T09:28:00.089Z,10.93
2019-02-27T09:30:30.224Z,10.90
2019-02-27T09:32:59.632Z,11.85
2019-02-27T09:35:32.259Z,11.20
2019-02-27T09:38:00.310Z,11.68
2019-02-27T09:40:30.756Z,11.63
2019-02-27T09:43:00.085Z,12.23
2019-02-27T09:45:35.765Z,10.90
2019-02-27T09:48:05.376Z,11.33
2019-02-27T09:50:36.995Z,11.05
2019-02-27T09:53:06.336Z,9.75
2019-02-27T09:55:35.895Z,9.58
2019-02-27T09:58:09.960Z,9.73
2019-02-27T10:00:42.402Z,9.48
2019-02-27T10:03:11.942Z,10.25
2019-02-27T10:05:41.249Z,9.33
2019-02-27T10:08:12.240Z,9.70
2019-02-27T10:10:44.898Z,9.80
2019-02-27T10:13:12.682Z,10.40
2019-02-27T10:15:42.195Z,9.20
2019-02-27T10:18:11.571Z,9.30
2019-02-27T10:20:40.907Z,8.88
2019-02-27T10:23:10.220Z,9.50
2019-02-27T10:25:43.245Z,9.70
2019-02-27T10:28:10.765Z,10.32
2019-02-27T10:30:40.101Z,10.75
2019-02-27T10:33:11.119Z,9.33
2019-02-27T10:35:40.763Z,9.10
2019-02-27T10:38:10.094Z,9.85
2019-02-27T10:40:39.433Z,11.20
2019-02-27T10:43:09.173Z,10.13
2019-02-27T10:45:38.509Z,11.38
2019-02-27T10:48:07.848Z,10.38
2019-02-27T10:50:37.407Z,10.18
2019-02-27T10:53:06.754Z,10.13
2019-02-27T10:55:36.089Z,11.25
2019-02-27T10:58:07.568Z,10.50
2019-02-27T11:00:36.496Z,10.25
2019-02-27T11:03:05.901Z,11.00
2019-02-27T11:05:37.512Z,11.38
2019-02-27T11:08:06.918Z,10.48
2019-02-27T11:10:36.321Z,10.28
2019-02-27T11:13:07.052Z,10.15
2019-02-27T11:15:41.151Z,10.32
2019-02-27T11:18:07.606Z,10.08
2019-02-27T11:20:36.935Z,10.40
2019-02-27T11:23:07.090Z,10.03
2019-02-27T11:25:36.998Z,10.30
2019-02-27T11:28:06.498Z,9.10
2019-02-27T11:30:37.751Z,10.05
2019-02-27T11:33:07.220Z,9.88
2019-02-27T11:35:36.555Z,10.20
2019-02-27T11:38:05.880Z,9.45
2019-02-27T11:40:35.521Z,9.28
2019-02-27T11:43:06.970Z,10.00
2019-02-27T11:45:35.949Z,8.70
2019-02-27T11:48:05.448Z,8.73
2019-02-27T11:50:34.777Z,8.78
2019-02-27T11:53:04.173Z,7.55
2019-02-27T11:55:33.505Z,7.20
2019-02-27T11:58:05.329Z,6.12
2019-02-27T12:00:34.411Z,6.65
2019-02-27T12:03:03.809Z,6.75
2019-02-27T12:05:34.473Z,7.12
2019-02-27T12:08:04.075Z,7.00
2019-02-27T12:10:33.562Z,6.47
2019-02-27T12:13:03.138Z,6.90
2019-02-27T12:15:32.462Z,6.45
2019-02-27T12:18:01.972Z,6.22
2019-02-27T12:20:31.364Z,6.12
2019-02-27T12:23:00.701Z,6.20
2019-02-27T12:25:30.462Z,6.95
2019-02-27T12:28:01.921Z,7.85
2019-02-27T12:30:32.292Z,7.12
2019-02-27T12:33:01.699Z,7.70
2019-02-27T12:35:35.849Z,6.62
2019-02-27T12:38:08.182Z,7.40
2019-02-27T12:40:37.098Z,8.30
2019-02-27T12:43:06.430Z,8.00
2019-02-27T12:45:35.826Z,7.22
2019-02-27T12:48:05.239Z,8.38
2019-02-27T12:50:34.849Z,8.45
2019-02-27T12:53:04.713Z,8.40
2019-02-27T12:55:36.253Z,7.37
2019-02-27T12:58:05.079Z,8.08
2019-02-27T13:00:35.949Z,7.22
2019-02-27T13:03:08.461Z,7.62
2019-02-27T13:05:36.486Z,7.30
2019-02-27T13:08:06.214Z,7.58
2019-02-27T13:10:35.551Z,8.08
2019-02-27T13:13:04.923Z,7.85
2019-02-27T13:15:34.262Z,7.12
2019-02-27T13:18:03.826Z,6.75
2019-02-27T13:20:35.412Z,7.00
2019-02-27T13:23:05.579Z,7.42
2019-02-27T13:25:34.956Z,6.40
2019-02-27T13:28:04.363Z,6.40
2019-02-27T13:33:19.750Z,6.58
2019-02-27T13:35:49.080Z,6.33
2019-02-27T13:38:18.707Z,6.60
2019-02-27T13:40:48.055Z,6.00
2019-02-27T13:43:17.386Z,6.35
2019-02-27T13:45:47.605Z,6.58
2019-02-27T13:48:17.426Z,6.65
2019-02-27T13:50:46.993Z,6.65
2019-02-27T13:53:16.564Z,6.67
2019-02-27T13:55:48.254Z,6.15
2019-02-27T13:58:16.953Z,6.58
2019-02-27T14:00:46.292Z,6.67
2019-02-27T14:03:15.622Z,5.80
2019-02-27T14:05:44.964Z,6.47
2019-02-27T14:08:14.359Z,6.33
2019-02-27T14:10:43.690Z,6.85
2019-02-27T14:13:13.992Z,5.62
2019-02-27T14:15:43.317Z,5.35
2019-02-27T14:18:13.525Z,5.22
2019-02-27T14:20:43.661Z,4.90
2019-02-27T14:23:14.570Z,5.20
2019-02-27T14:25:44.008Z,5.58
2019-02-27T14:28:13.341Z,5.40
2019-02-27T14:30:48.198Z,5.50
2019-02-27T14:33:19.269Z,5.80
2019-02-27T14:35:48.551Z,5.83
2019-02-27T14:38:17.881Z,5.97
2019-02-27T14:40:47.451Z,5.80
2019-02-27T14:43:16.774Z,5.85
2019-02-27T14:45:46.331Z,4.80
2019-02-27T14:48:18.170Z,5.10
2019-02-27T14:50:46.687Z,5.22
2019-02-27T14:53:19.034Z,5.30
2019-02-27T14:55:47.265Z,5.33
2019-02-27T14:58:16.587Z,5.70
2019-02-27T15:00:46.151Z,5.87
2019-02-27T15:03:15.726Z,5.78
2019-02-27T15:05:45.371Z,6.33
2019-02-27T15:08:14.658Z,5.45
2019-02-27T15:10:44.049Z,6.15
2019-02-27T15:13:13.614Z,5.33
2019-02-27T15:15:43.753Z,5.55
2019-02-27T15:18:14.121Z,5.12
2019-02-27T15:20:43.423Z,5.87
2019-02-27T15:23:14.377Z,5.45
2019-02-27T15:25:43.704Z,5.75
2019-02-27T15:28:13.042Z,5.67
2019-02-27T15:30:46.315Z,6.25
2019-02-27T15:33:13.865Z,5.92
2019-02-27T15:35:43.255Z,5.72
2019-02-27T15:38:12.595Z,6.12
2019-02-27T15:40:42.086Z,5.17
2019-02-27T15:43:11.771Z,5.47
2019-02-27T15:45:47.274Z,6.33
2019-02-27T15:48:12.247Z,6.03
2019-02-27T15:50:41.584Z,6.15
2019-02-27T15:53:14.622Z,5.75
2019-02-27T15:55:42.183Z,6.25
2019-02-27T15:58:11.510Z,5.60
2019-02-27T16:00:40.912Z,6.37
2019-02-27T16:03:11.832Z,5.78
2019-02-27T16:05:41.342Z,5.87
2019-02-27T16:08:10.731Z,6.33
2019-02-27T16:10:43.713Z,5.58
2019-02-27T16:13:11.102Z,6.25
2019-02-27T16:15:40.661Z,5.67
2019-02-27T16:18:09.991Z,6.33
2019-02-27T16:20:39.327Z,6.42
2019-02-27T16:23:08.656Z,5.70
2019-02-27T16:25:37.990Z,6.55
2019-02-27T16:28:11.133Z,6.05
2019-02-27T16:30:38.640Z,6.50
2019-02-27T16:33:07.970Z,5.67
2019-02-27T16:35:41.575Z,7.10
2019-02-27T16:38:08.578Z,6.62
2019-02-27T16:40:37.902Z,10.93
2019-02-27T16:43:07.232Z,8.08
2019-02-27T16:45:37.975Z,14.93
2019-02-27T16:48:07.392Z,9.68
2019-02-27T16:50:36.716Z,9.88
2019-02-27T16:53:06.051Z,11.15
2019-02-27T16:55:37.457Z,10.20
2019-02-27T16:58:07.647Z,8.98
2019-02-27T17:00:38.551Z,10.65
2019-02-27T17:03:12.801Z,8.23
2019-02-27T17:05:40.376Z,7.50
2019-02-27T17:08:10.002Z,7.90
2019-02-27T17:10:39.961Z,7.97
2019-02-27T17:13:14.666Z,7.83
2019-02-27T17:15:40.416Z,7.53
2019-02-27T17:18:09.760Z,7.37
2019-02-27T17:20:39.336Z,7.10
2019-02-27T17:23:10.952Z,7.03
2019-02-27T17:25:39.698Z,7.10
2019-02-27T17:28:09.024Z,6.87
2019-02-27T17:30:38.418Z,6.92
2019-02-27T17:33:07.762Z,6.53
2019-02-27T17:35:37.087Z,6.53
2019-02-27T17:38:06.463Z,6.62
2019-02-27T17:40:37.599Z,6.42
2019-02-27T17:43:07.198Z,6.53
2019-02-27T17:45:36.772Z,6.50
2019-02-27T17:48:06.127Z,6.60
2019-02-27T17:50:35.458Z,6.62
2019-02-27T17:53:04.880Z,7.53
2019-02-27T17:55:34.193Z,7.53
2019-02-27T17:58:03.758Z,6.92
2019-02-27T18:00:49.975Z,6.85
2019-02-27T18:03:17.942Z,6.92
2019-02-27T18:05:47.275Z,7.50
2019-02-27T18:08:17.223Z,7.05
2019-02-27T18:10:46.587Z,7.12
2019-02-27T18:13:15.926Z,7.90
2019-02-27T18:15:45.251Z,7.55
2019-02-27T18:18:14.583Z,7.60
2019-02-27T18:20:44.168Z,7.62
2019-02-27T18:23:13.506Z,8.03
2019-02-27T18:25:43.062Z,7.92
2019-02-27T18:28:12.388Z,7.20
2019-02-27T18:30:42.717Z,7.70
2019-02-27T18:33:13.953Z,7.53
2019-02-27T18:35:43.222Z,7.85
2019-02-27T18:38:12.556Z,8.63
2019-02-27T18:40:42.779Z,9.38
2019-02-27T18:43:12.192Z,9.50
2019-02-27T18:45:41.526Z,9.80
2019-02-27T18:48:10.876Z,12.60
2019-02-27T18:50:40.209Z,12.95
2019-02-27T18:53:12.938Z,13.70
2019-02-27T18:55:40.590Z,14.00
2019-02-27T18:58:09.925Z,13.50
2019-02-27T19:00:39.265Z,14.05
2019-02-27T19:03:10.241Z,12.30
2019-02-27T19:05:41.824Z,11.68
2019-02-27T19:08:10.602Z,11.85
2019-02-27T19:10:42.431Z,10.75
2019-02-27T19:13:11.137Z,10.28
2019-02-27T19:15:45.427Z,10.40
2019-02-27T19:18:12.022Z,9.08
2019-02-27T19:20:43.784Z,9.75
2019-02-27T19:23:17.193Z,9.48
2019-02-27T19:25:45.598Z,10.40
2019-02-27T19:28:14.980Z,11.00
2019-02-27T19:30:44.341Z,10.40
2019-02-27T19:33:13.653Z,10.32
2019-02-27T19:35:43.023Z,10.32
2019-02-27T19:38:13.073Z,10.45
2019-02-27T19:40:43.171Z,11.63
2019-02-27T19:43:12.737Z,10.43
2019-02-27T19:45:42.485Z,10.48
2019-02-27T19:48:12.870Z,10.60
2019-02-27T19:50:44.866Z,10.38
2019-02-27T19:53:13.295Z,10.23
2019-02-27T19:55:42.753Z,9.58
2019-02-27T19:58:17.246Z,9.40
2019-02-27T20:00:48.500Z,10.88
2019-02-27T20:03:14.578Z,9.50
2019-02-27T20:05:43.908Z,9.58
2019-02-27T20:08:13.243Z,9.33
2019-02-27T20:10:44.161Z,9.90
2019-02-27T20:13:13.876Z,9.60
2019-02-27T20:15:45.672Z,10.00
2019-02-27T20:18:15.016Z,11.22
2019-02-27T20:20:44.414Z,10.38
2019-02-27T20:23:13.821Z,10.90
2019-02-27T20:25:44.370Z,10.53
2019-02-27T20:28:13.845Z,10.28
2019-02-27T20:30:43.466Z,11.30
2019-02-27T20:33:12.950Z,11.12
2019-02-27T20:35:42.265Z,11.15
2019-02-27T20:38:15.476Z,10.65
2019-02-27T20:40:43.021Z,10.90
2019-02-27T20:43:13.317Z,10.63
2019-02-27T20:45:43.535Z,10.43
2019-02-27T20:48:13.203Z,11.05
2019-02-27T20:50:48.508Z,12.45
2019-02-27T20:53:20.936Z,11.65
2019-02-27T20:55:49.145Z,11.30
2019-02-27T20:58:18.840Z,11.97
2019-02-27T21:00:48.519Z,11.85
2019-02-27T21:03:17.854Z,11.95
2019-02-27T21:05:48.586Z,11.53
2019-02-27T21:08:17.918Z,12.23
2019-02-27T21:10:47.367Z,11.60
2019-02-27T21:13:16.963Z,11.63
2019-02-27T21:15:46.368Z,11.65
2019-02-27T21:18:16.213Z,11.33
2019-02-27T21:20:46.224Z,12.53
2019-02-27T21:23:15.889Z,12.18
2019-02-27T21:25:48.768Z,13.15
2019-02-27T21:28:20.962Z,13.35
2019-02-27T21:30:51.910Z,13.10
2019-02-27T21:33:19.038Z,13.22
2019-02-27T21:35:48.417Z,12.53
2019-02-27T21:38:17.777Z,13.62
2019-02-27T21:40:47.239Z,13.53
2019-02-27T21:43:16.565Z,12.80
2019-02-27T21:45:46.008Z,11.95
2019-02-27T21:48:15.693Z,13.58
2019-02-27T21:50:45.357Z,12.50
2019-02-27T21:53:14.718Z,13.62
2019-02-27T21:55:44.916Z,12.68
2019-02-27T21:58:20.298Z,12.60
2019-02-27T22:00:48.125Z,13.80
2019-02-27T22:03:17.008Z,12.90
2019-02-27T22:05:46.980Z,13.22
2019-02-27T22:08:16.438Z,13.62
2019-02-27T22:10:45.841Z,13.62
2019-02-27T22:13:15.329Z,12.78
2019-02-27T22:15:44.774Z,13.08
2019-02-27T22:18:14.199Z,15.32
2019-02-27T22:20:43.536Z,14.40
2019-02-27T22:23:13.557Z,15.32
2019-02-27T22:25:42.921Z,14.80
2019-02-27T22:28:12.245Z,15.43
2019-02-27T22:30:41.807Z,14.85
2019-02-27T22:33:11.136Z,15.98
2019-02-27T22:35:40.470Z,15.05
2019-02-27T22:38:09.792Z,15.48
2019-02-27T22:40:39.238Z,15.50
2019-02-27T22:43:08.769Z,14.68
2019-02-27T22:45:40.577Z,15.10
2019-02-27T22:48:09.119Z,16.07
2019-02-27T22:50:41.230Z,15.75
2019-02-27T22:53:09.477Z,15.93
2019-02-27T22:55:42.263Z,15.48
2019-02-27T22:58:09.832Z,15.18
2019-02-27T23:00:56.550Z,16.65
2019-02-27T23:03:30.956Z,16.12
2019-02-27T23:06:00.361Z,17.05
2019-02-27T23:08:30.665Z,16.00
2019-02-27T23:11:02.950Z,16.10
2019-02-27T23:13:31.914Z,16.12
2019-02-27T23:16:01.267Z,16.75
2019-02-27T23:18:31.370Z,16.32
2019-02-27T23:21:00.764Z,17.02
2019-02-27T23:23:30.060Z,16.95
2019-02-27T23:25:59.620Z,17.10
2019-02-27T23:28:34.528Z,17.48
2019-02-27T23:31:00.955Z,16.97
2019-02-27T23:33:35.873Z,18.07
2019-02-27T23:36:01.682Z,18.55
2019-02-27T23:38:31.013Z,18.37
2019-02-27T23:41:00.342Z,18.85
2019-02-27T23:43:29.667Z,19.45
2019-02-27T23:45:58.999Z,18.77
2019-02-27T23:48:28.716Z,18.32
2019-02-27T23:50:58.045Z,19.15
2019-02-27T23:53:27.839Z,18.42
2019-02-27T23:55:57.184Z,18.37
2019-02-27T23:58:29.487Z,18.32
